Time;durP1;ratioP1;P1;durP2;ratioP2;P2;SDS_P1;SDS_P2;PMS_P1;PMS_P2;Temp;Humidity;BMP_temperature;BMP_pressure;BME280_temperature;BME280_humidity;BME280_pressure;Samples;Min_cycle;Max_cycle;Signal;HPM_P1;HPM_P2
2023/11/22 00:00:22;;;;;;;4.87;2.50;;;3.20;99.90;;;;;;4900867;29;20222;-96
2023/11/22 00:02:48;;;;;;;5.93;2.57;;;3.20;99.90;;;;;;4912578;29;20265;-96
2023/11/22 00:05:16;;;;;;;2.73;2.10;;;3.20;99.90;;;;;;4907236;29;20694;-95
2023/11/22 00:07:42;;;;;;;3.77;2.40;;;3.20;99.90;;;;;;4901450;29;20285;-96
2023/11/22 00:10:08;;;;;;;5.07;2.40;;;3.20;99.90;;;;;;4889629;29;20246;-92
2023/11/22 00:12:38;;;;;;;4.03;2.50;;;3.20;99.90;;;;;;4899480;29;20195;-96
2023/11/22 00:15:06;;;;;;;5.50;2.47;;;3.20;99.90;;;;;;4901102;29;20206;-96
2023/11/22 00:17:32;;;;;;;4.93;2.30;;;3.20;99.90;;;;;;4891723;29;20319;-96
2023/11/22 00:20:01;;;;;;;3.83;2.60;;;3.10;99.90;;;;;;4895324;29;20184;-94
2023/11/22 00:22:27;;;;;;;2.77;2.20;;;3.10;99.90;;;;;;4888678;29;20243;-91
2023/11/22 00:24:53;;;;;;;3.80;2.43;;;3.20;99.90;;;;;;4893214;29;20888;-96
2023/11/22 00:27:19;;;;;;;4.23;1.90;;;3.10;99.90;;;;;;4908277;29;20242;-87
2023/11/22 00:29:46;;;;;;;3.50;2.30;;;3.20;99.90;;;;;;4893519;29;20278;-96
2023/11/22 00:32:12;;;;;;;4.27;2.20;;;3.20;99.90;;;;;;4911743;29;20713;-88
2023/11/22 00:34:39;;;;;;;3.57;2.30;;;3.10;99.90;;;;;;4901219;29;20247;-85
2023/11/22 00:37:05;;;;;;;6.10;2.30;;;3.10;99.90;;;;;;4894104;29;20190;-88
2023/11/22 00:39:31;;;;;;;3.80;2.30;;;3.10;99.90;;;;;;4884001;29;20519;-86
2023/11/22 00:41:57;;;;;;;2.93;2.17;;;3.10;99.90;;;;;;4879994;29;20187;-85
2023/11/22 00:44:23;;;;;;;3.83;2.30;;;3.10;99.90;;;;;;4895950;29;20265;-86
2023/11/22 00:46:48;;;;;;;4.50;2.50;;;3.10;99.90;;;;;;4880059;29;20187;-87
2023/11/22 00:49:14;;;;;;;3.70;2.23;;;3.10;99.90;;;;;;4880753;29;20500;-89
2023/11/22 00:51:40;;;;;;;4.20;2.00;;;3.10;99.90;;;;;;4882918;29;20195;-85
2023/11/22 00:54:06;;;;;;;2.83;1.93;;;3.00;99.90;;;;;;4896749;29;20241;-86
2023/11/22 00:56:32;;;;;;;5.83;2.10;;;3.10;99.90;;;;;;4899017;29;20191;-88
2023/11/22 00:58:59;;;;;;;3.60;2.10;;;3.10;99.90;;;;;;4883499;29;20190;-86
2023/11/22 01:01:25;;;;;;;2.60;2.00;;;3.10;99.90;;;;;;4885123;29;20226;-84
2023/11/22 01:03:51;;;;;;;4.60;2.33;;;3.10;99.90;;;;;;4886680;29;20191;-88
2023/11/22 01:06:18;;;;;;;3.60;2.33;;;3.10;99.90;;;;;;4884620;29;20195;-94
2023/11/22 01:08:44;;;;;;;3.50;2.20;;;3.10;99.90;;;;;;4885027;29;20626;-88
2023/11/22 01:11:10;;;;;;;4.80;2.37;;;3.10;99.90;;;;;;4890941;29;20195;-93
2023/11/22 01:13:40;;;;;;;2.53;1.83;;;3.10;99.90;;;;;;4882906;29;20681;-96
2023/11/22 01:16:15;;;;;;;3.00;2.13;;;3.10;99.90;;;;;;4895472;29;20269;-95
2023/11/22 01:18:42;;;;;;;5.07;2.20;;;3.10;99.90;;;;;;4885481;29;20198;-96
2023/11/22 01:21:08;;;;;;;5.10;2.07;;;3.00;99.90;;;;;;4881049;29;20188;-95
2023/11/22 01:23:34;;;;;;;4.20;2.30;;;3.10;99.90;;;;;;4896759;29;20210;-96
2023/11/22 01:26:03;;;;;;;2.90;2.27;;;3.00;99.90;;;;;;4882778;29;20198;-92
2023/11/22 01:28:28;;;;;;;4.77;2.13;;;3.00;99.90;;;;;;5317010;23;20301;-80
2023/11/22 01:30:54;;;;;;;6.33;2.37;;;3.00;99.90;;;;;;4921881;29;20193;-80
2023/11/22 01:33:23;;;;;;;4.47;2.40;;;2.90;99.90;;;;;;4936092;29;20213;-81
2023/11/22 01:35:52;;;;;;;4.90;2.40;;;2.90;99.90;;;;;;4899943;29;20186;-80
2023/11/22 01:38:18;;;;;;;2.90;2.37;;;2.80;99.90;;;;;;4907006;29;20281;-80
2023/11/22 01:40:47;;;;;;;4.47;2.20;;;2.80;99.90;;;;;;4935883;29;20269;-80
2023/11/22 01:43:21;;;;;;;6.10;2.57;;;2.80;99.90;;;;;;4939312;29;20225;-80
2023/11/22 01:45:46;;;;;;;3.40;2.60;;;2.70;99.90;;;;;;4903428;29;20198;-81
2023/11/22 01:48:12;;;;;;;3.73;2.47;;;2.70;99.90;;;;;;4906843;29;20204;-80
2023/11/22 01:50:40;;;;;;;5.60;2.67;;;2.60;99.90;;;;;;4927322;29;20254;-81
2023/11/22 01:53:07;;;;;;;4.00;2.40;;;2.60;99.90;;;;;;4906229;29;20217;-80
2023/11/22 01:55:33;;;;;;;7.13;2.57;;;2.60;99.90;;;;;;4925054;29;20186;-80
2023/11/22 01:57:59;;;;;;;5.80;2.60;;;2.50;99.90;;;;;;4939006;29;20237;-80
2023/11/22 02:00:26;;;;;;;3.20;2.40;;;2.50;99.90;;;;;;4936926;29;20182;-80
2023/11/22 02:02:53;;;;;;;5.37;3.20;;;2.40;99.90;;;;;;4902847;29;20178;-80
2023/11/22 02:05:19;;;;;;;3.73;2.40;;;2.40;99.90;;;;;;4929761;29;20712;-81
2023/11/22 02:07:44;;;;;;;6.57;2.43;;;2.40;99.90;;;;;;4938711;29;20261;-80
2023/11/22 02:10:10;;;;;;;3.23;2.50;;;2.40;99.90;;;;;;4937831;29;20194;-81
2023/11/22 02:12:36;;;;;;;6.27;2.77;;;2.30;99.90;;;;;;4932217;29;20189;-79
2023/11/22 02:15:03;;;;;;;3.57;2.40;;;2.30;99.90;;;;;;4933015;29;20536;-80
2023/11/22 02:17:29;;;;;;;3.73;2.67;;;2.30;99.90;;;;;;4938757;29;20184;-80
2023/11/22 02:19:55;;;;;;;6.00;2.43;;;2.30;99.90;;;;;;4938390;29;20185;-80
2023/11/22 02:22:21;;;;;;;4.00;2.83;;;2.30;99.90;;;;;;4935875;29;20209;-80
2023/11/22 02:24:47;;;;;;;4.00;2.40;;;2.20;99.90;;;;;;4909098;29;20182;-80
2023/11/22 02:27:13;;;;;;;4.80;2.60;;;2.20;99.90;;;;;;4927540;29;20281;-80
2023/11/22 02:29:40;;;;;;;3.83;2.53;;;2.10;99.90;;;;;;4920501;29;20231;-80
2023/11/22 02:32:06;;;;;;;3.67;2.37;;;2.10;99.90;;;;;;4926224;29;20190;-80
2023/11/22 02:34:31;;;;;;;5.30;2.60;;;2.10;99.90;;;;;;4913077;29;20234;-80
2023/11/22 02:36:57;;;;;;;3.43;2.07;;;2.10;99.90;;;;;;4916736;29;20273;-81
2023/11/22 02:39:41;;;;;;;3.57;2.33;;;2.00;99.90;;;;;;4916586;29;20634;-81
2023/11/22 02:42:08;;;;;;;4.03;2.43;;;2.00;99.90;;;;;;4880212;29;20198;-81
2023/11/22 02:44:34;;;;;;;4.77;2.67;;;2.00;99.90;;;;;;4907741;29;20194;-80
2023/11/22 02:47:00;;;;;;;3.20;2.13;;;1.90;99.90;;;;;;4916552;29;20179;-80
2023/11/22 02:49:25;;;;;;;4.37;2.77;;;1.90;99.90;;;;;;4899522;29;20194;-81
2023/11/22 02:51:51;;;;;;;6.03;2.50;;;1.90;99.90;;;;;;4919023;29;20626;-81
2023/11/22 02:54:17;;;;;;;3.97;2.40;;;1.90;99.90;;;;;;4929412;29;20213;-81
2023/11/22 02:56:42;;;;;;;4.30;2.50;;;1.90;99.90;;;;;;4919181;29;20187;-81
2023/11/22 02:59:13;;;;;;;4.23;2.37;;;1.90;99.90;;;;;;4900251;29;20190;-82
2023/11/22 03:01:42;;;;;;;2.97;2.27;;;1.80;99.90;;;;;;4924151;29;20315;-80
2023/11/22 03:04:08;;;;;;;2.90;2.37;;;1.80;99.90;;;;;;4928364;29;20194;-80
2023/11/22 03:06:36;;;;;;;4.00;2.40;;;1.70;99.90;;;;;;4913968;29;20190;-81
2023/11/22 03:09:02;;;;;;;2.87;2.10;;;1.70;99.90;;;;;;4922746;29;20186;-81
2023/11/22 03:11:27;;;;;;;3.23;2.20;;;1.70;99.90;;;;;;4905494;29;20190;-81
2023/11/22 03:13:53;;;;;;;3.93;2.33;;;1.70;99.90;;;;;;4926110;29;20268;-82
2023/11/22 03:16:19;;;;;;;7.27;2.70;;;1.70;99.90;;;;;;4895085;29;20223;-80
2023/11/22 03:18:44;;;;;;;6.60;3.20;;;1.70;99.90;;;;;;4920299;29;20630;-81
2023/11/22 03:21:10;;;;;;;5.77;2.47;;;1.60;99.90;;;;;;4908856;29;20228;-81
2023/11/22 03:23:36;;;;;;;5.37;2.33;;;1.70;99.90;;;;;;4905121;29;20182;-81
2023/11/22 03:26:03;;;;;;;6.77;2.50;;;1.70;99.90;;;;;;4906510;29;20341;-80
2023/11/22 03:28:31;;;;;;;4.73;2.07;;;1.60;99.90;;;;;;4893854;29;20239;-82
2023/11/22 03:30:56;;;;;;;7.97;2.67;;;1.60;99.90;;;;;;4883195;29;20187;-81
2023/11/22 03:33:22;;;;;;;3.70;2.00;;;1.50;99.90;;;;;;4898539;29;20221;-82
2023/11/22 03:35:48;;;;;;;5.07;2.60;;;1.50;99.90;;;;;;4890348;29;20195;-81
2023/11/22 03:38:13;;;;;;;3.77;2.53;;;1.50;99.90;;;;;;4874314;29;20192;-81
2023/11/22 03:40:40;;;;;;;2.90;2.07;;;1.40;99.90;;;;;;4897876;29;20187;-81
2023/11/22 03:43:08;;;;;;;3.20;2.23;;;1.40;99.90;;;;;;4891753;29;20259;-80
2023/11/22 03:45:33;;;;;;;3.53;2.47;;;1.40;99.90;;;;;;4895194;29;20187;-81
2023/11/22 03:47:59;;;;;;;3.33;2.30;;;1.40;99.90;;;;;;4871988;29;20204;-80
2023/11/22 03:50:25;;;;;;;4.23;2.40;;;1.40;99.90;;;;;;4895638;29;20577;-82
2023/11/22 03:52:51;;;;;;;4.00;2.63;;;1.40;99.90;;;;;;4899414;29;20225;-81
2023/11/22 03:55:17;;;;;;;6.07;2.60;;;1.30;99.90;;;;;;4898787;29;20222;-82
2023/11/22 03:57:43;;;;;;;5.33;2.60;;;1.40;99.90;;;;;;4888980;29;20195;-81
2023/11/22 04:00:10;;;;;;;4.33;2.63;;;1.30;99.90;;;;;;4892870;29;20197;-81
2023/11/22 04:02:37;;;;;;;3.87;2.53;;;1.40;99.90;;;;;;4899000;29;20187;-82
2023/11/22 04:05:03;;;;;;;5.57;2.50;;;1.40;99.90;;;;;;4893580;29;20201;-80
2023/11/22 04:07:29;;;;;;;3.57;2.60;;;1.30;99.90;;;;;;4871557;29;20248;-79
2023/11/22 04:09:55;;;;;;;2.73;2.33;;;1.30;99.90;;;;;;4895776;29;20195;-82
2023/11/22 04:12:22;;;;;;;3.63;2.40;;;1.30;99.90;;;;;;4899290;29;20657;-81
2023/11/22 04:14:48;;;;;;;3.60;2.70;;;1.30;99.90;;;;;;4897933;29;20222;-81
2023/11/22 04:17:13;;;;;;;5.10;2.80;;;1.30;99.90;;;;;;4891390;29;20266;-81
2023/11/22 04:19:39;;;;;;;3.00;1.97;;;1.20;99.90;;;;;;4874107;29;20187;-81
2023/11/22 04:22:04;;;;;;;3.87;2.43;;;1.30;99.90;;;;;;4874561;29;20198;-82
2023/11/22 04:24:31;;;;;;;2.90;2.17;;;1.20;99.90;;;;;;4890040;29;20211;-81
2023/11/22 04:26:57;;;;;;;4.07;2.40;;;1.20;99.90;;;;;;4877017;29;20187;-81
2023/11/22 04:29:23;;;;;;;4.77;2.00;;;1.20;99.90;;;;;;4912154;29;20244;-81
2023/11/22 04:31:48;;;;;;;4.13;2.23;;;1.20;99.90;;;;;;4921028;29;20174;-81
2023/11/22 04:34:14;;;;;;;2.60;2.00;;;1.10;99.90;;;;;;4919311;29;20213;-81
2023/11/22 04:36:40;;;;;;;7.17;2.50;;;1.10;99.90;;;;;;4922888;29;20301;-81
2023/11/22 04:39:07;;;;;;;4.30;2.20;;;1.10;99.90;;;;;;4903960;29;20197;-81
2023/11/22 04:41:34;;;;;;;3.37;2.20;;;1.10;99.90;;;;;;4919266;29;20294;-81
2023/11/22 04:44:00;;;;;;;3.53;2.23;;;1.10;99.90;;;;;;4913744;29;20657;-82
2023/11/22 04:46:26;;;;;;;3.60;2.33;;;1.10;99.90;;;;;;4900077;29;20194;-82
2023/11/22 04:48:51;;;;;;;6.43;2.83;;;1.10;99.90;;;;;;4903563;29;20265;-80
2023/11/22 04:51:17;;;;;;;6.57;2.00;;;1.00;99.90;;;;;;4921251;29;20696;-82
2023/11/22 04:53:44;;;;;;;3.57;2.37;;;0.90;99.90;;;;;;4916706;29;20300;-81
2023/11/22 04:56:09;;;;;;;2.80;2.10;;;1.00;99.90;;;;;;4906428;29;20278;-80
2023/11/22 04:58:35;;;;;;;5.00;2.50;;;0.90;99.90;;;;;;4900143;29;20689;-80
2023/11/22 05:01:01;;;;;;;3.67;2.40;;;0.90;99.90;;;;;;4918859;29;20189;-80
2023/11/22 05:03:27;;;;;;;4.93;2.17;;;0.90;99.90;;;;;;4917565;29;20187;-80
2023/11/22 05:05:53;;;;;;;3.47;2.43;;;0.80;99.90;;;;;;4909544;29;20242;-80
2023/11/22 05:08:19;;;;;;;2.93;1.80;;;0.80;99.90;;;;;;4919905;29;20187;-79
2023/11/22 05:10:45;;;;;;;3.53;2.00;;;0.80;99.90;;;;;;4918213;29;20201;-80
2023/11/22 05:13:10;;;;;;;2.50;2.00;;;0.80;99.90;;;;;;4896946;29;20222;-80
2023/11/22 05:15:36;;;;;;;3.10;2.00;;;0.80;99.90;;;;;;4920438;29;20222;-79
2023/11/22 05:18:02;;;;;;;3.03;1.80;;;0.80;99.90;;;;;;4924872;29;20188;-80
2023/11/22 05:20:28;;;;;;;4.30;1.80;;;0.80;99.90;;;;;;4895476;29;20253;-80
2023/11/22 05:22:54;;;;;;;3.77;2.20;;;0.80;99.90;;;;;;4913708;29;20183;-80
2023/11/22 05:25:20;;;;;;;3.40;1.90;;;0.80;99.90;;;;;;4915349;29;20187;-80
2023/11/22 05:27:45;;;;;;;3.77;1.87;;;0.80;99.90;;;;;;4898255;29;20191;-81
2023/11/22 05:30:11;;;;;;;2.47;1.93;;;0.80;99.90;;;;;;4922024;29;20198;-80
2023/11/22 05:32:37;;;;;;;2.37;1.90;;;0.80;99.90;;;;;;4885597;29;20537;-81
2023/11/22 05:35:06;;;;;;;2.87;2.10;;;0.80;99.90;;;;;;4920862;29;20222;-80
2023/11/22 05:37:32;;;;;;;3.27;2.03;;;0.70;99.90;;;;;;4921788;29;20569;-80
2023/11/22 05:39:57;;;;;;;4.40;2.03;;;0.70;99.90;;;;;;4919241;29;20190;-80
2023/11/22 05:42:24;;;;;;;3.77;2.20;;;0.70;99.90;;;;;;4914278;29;20222;-79
2023/11/22 05:44:50;;;;;;;2.60;2.10;;;0.70;99.90;;;;;;4917134;29;20261;-79
2023/11/22 05:47:18;;;;;;;2.70;1.60;;;0.70;99.90;;;;;;4910663;29;20273;-79
2023/11/22 05:49:44;;;;;;;4.50;1.70;;;0.70;99.90;;;;;;4888946;29;20191;-80
2023/11/22 05:52:09;;;;;;;3.87;2.00;;;0.60;99.90;;;;;;4905112;29;20197;-80
2023/11/22 05:54:36;;;;;;;5.03;2.00;;;0.60;99.90;;;;;;4918166;29;20236;-80
2023/11/22 05:57:02;;;;;;;2.50;1.67;;;0.60;99.90;;;;;;4916208;29;20186;-80
2023/11/22 05:59:28;;;;;;;2.47;1.80;;;0.60;99.90;;;;;;4919497;29;20182;-80
2023/11/22 06:01:53;;;;;;;2.50;1.90;;;0.60;99.90;;;;;;4917578;29;20192;-81
2023/11/22 06:04:19;;;;;;;2.37;1.97;;;0.60;99.90;;;;;;4896441;29;20222;-80
2023/11/22 06:06:46;;;;;;;3.23;1.90;;;0.60;99.90;;;;;;4892525;29;20277;-80
2023/11/22 06:09:14;;;;;;;2.80;1.87;;;0.50;99.90;;;;;;4902137;29;20602;-80
2023/11/22 06:11:40;;;;;;;2.90;2.10;;;0.50;99.90;;;;;;4918129;29;20188;-80
2023/11/22 06:14:06;;;;;;;3.57;1.80;;;0.50;99.90;;;;;;4919756;29;20213;-82
2023/11/22 06:16:31;;;;;;;4.43;2.00;;;0.60;99.90;;;;;;4911748;29;20249;-80
2023/11/22 06:18:57;;;;;;;1.90;1.53;;;0.60;99.90;;;;;;4907948;29;20194;-80
2023/11/22 06:21:26;;;;;;;3.00;2.00;;;0.60;99.90;;;;;;4914860;29;20622;-79
2023/11/22 06:23:55;;;;;;;4.03;2.17;;;0.60;99.90;;;;;;4902890;29;20573;-80
2023/11/22 06:26:21;;;;;;;4.90;1.80;;;0.50;99.90;;;;;;4909782;29;20197;-81
2023/11/22 06:28:49;;;;;;;3.13;1.70;;;0.50;99.90;;;;;;4912251;29;20239;-80
2023/11/22 06:31:14;;;;;;;3.10;1.90;;;0.50;99.90;;;;;;4936005;29;20221;-82
2023/11/22 06:33:40;;;;;;;3.63;2.17;;;0.40;99.90;;;;;;4935496;29;20249;-80
2023/11/22 06:36:06;;;;;;;4.00;1.80;;;0.50;99.90;;;;;;4933381;29;20208;-79
2023/11/22 06:38:32;;;;;;;2.07;1.57;;;0.50;99.90;;;;;;4911587;29;20590;-80
2023/11/22 06:40:58;;;;;;;4.70;1.80;;;0.50;99.90;;;;;;4931812;29;20201;-80
2023/11/22 06:43:23;;;;;;;3.23;2.10;;;0.50;99.90;;;;;;4929610;29;20232;-80
2023/11/22 06:45:50;;;;;;;5.23;1.80;;;0.50;99.90;;;;;;4938723;29;20186;-80
2023/11/22 06:48:16;;;;;;;6.50;1.90;;;0.50;99.90;;;;;;4921390;29;20186;-80
2023/11/22 06:50:42;;;;;;;3.17;2.00;;;0.50;99.90;;;;;;4938403;29;20201;-79
2023/11/22 06:53:08;;;;;;;2.67;1.90;;;0.50;99.90;;;;;;4932879;29;20538;-80
2023/11/22 06:55:33;;;;;;;4.00;2.60;;;0.50;99.90;;;;;;4927089;29;20218;-80
2023/11/22 06:57:59;;;;;;;2.70;2.23;;;0.40;99.90;;;;;;4921430;29;20237;-80
2023/11/22 07:00:27;;;;;;;3.73;2.50;;;0.40;99.90;;;;;;4938203;29;20628;-80
2023/11/22 07:02:53;;;;;;;3.37;2.50;;;0.50;99.90;;;;;;4921346;29;20198;-80
2023/11/22 07:05:19;;;;;;;3.33;2.23;;;0.50;99.90;;;;;;4938467;29;20190;-80
2023/11/22 07:07:44;;;;;;;4.53;2.33;;;0.50;99.90;;;;;;4927155;29;20187;-80
2023/11/22 07:10:11;;;;;;;7.80;2.53;;;0.50;99.90;;;;;;4921189;29;20202;-80
2023/11/22 07:12:37;;;;;;;4.70;2.57;;;0.60;99.90;;;;;;4937941;29;20186;-79
2023/11/22 07:15:05;;;;;;;4.23;2.20;;;0.60;99.90;;;;;;4920873;29;20222;-80
2023/11/22 07:17:33;;;;;;;5.93;2.43;;;0.70;99.90;;;;;;4938175;29;20249;-79
2023/11/22 07:20:00;;;;;;;4.93;2.57;;;0.70;99.90;;;;;;4920517;29;20194;-80
2023/11/22 07:22:26;;;;;;;4.27;2.60;;;0.80;99.90;;;;;;4938116;29;20181;-80
2023/11/22 07:24:54;;;;;;;3.37;2.37;;;0.80;99.90;;;;;;4938047;29;20186;-80
2023/11/22 07:27:20;;;;;;;5.07;2.77;;;0.80;99.90;;;;;;4934484;29;20265;-80
2023/11/22 07:29:46;;;;;;;4.33;2.93;;;0.90;99.90;;;;;;4920969;29;20282;-79
2023/11/22 07:32:12;;;;;;;3.57;2.40;;;1.00;99.90;;;;;;4908397;29;20198;-79
2023/11/22 07:34:39;;;;;;;3.97;2.63;;;1.00;99.90;;;;;;4894451;29;20225;-80
2023/11/22 07:37:08;;;;;;;7.73;2.07;;;1.00;99.90;;;;;;4891036;29;20188;-80
2023/11/22 07:39:35;;;;;;;4.50;2.47;;;1.00;99.90;;;;;;4913596;29;20193;-80
2023/11/22 07:42:02;;;;;;;4.87;2.43;;;1.10;99.90;;;;;;4924507;29;20213;-80
2023/11/22 07:44:32;;;;;;;2.93;2.10;;;1.20;99.90;;;;;;4925633;29;20218;-80
2023/11/22 07:46:59;;;;;;;2.70;2.23;;;1.20;99.90;;;;;;4898195;29;20202;-81
2023/11/22 07:49:25;;;;;;;5.03;2.47;;;1.20;99.90;;;;;;4937677;29;20196;-81
2023/11/22 07:51:51;;;;;;;3.50;2.30;;;1.20;99.90;;;;;;4918783;29;20184;-80
2023/11/22 07:54:22;;;;;;;5.30;2.10;;;1.20;99.90;;;;;;4915438;29;20582;-80
2023/11/22 07:56:54;;;;;;;2.87;2.20;;;1.30;99.90;;;;;;4916272;29;20218;-80
2023/11/22 07:59:20;;;;;;;4.53;2.57;;;1.40;99.90;;;;;;4894755;29;20198;-81
2023/11/22 08:01:49;;;;;;;3.67;2.73;;;1.40;99.90;;;;;;4915225;29;20191;-82
2023/11/22 08:04:18;;;;;;;3.77;2.60;;;1.40;99.90;;;;;;4904596;29;20194;-82
2023/11/22 08:06:45;;;;;;;6.43;3.30;;;1.40;99.90;;;;;;4917367;29;20205;-80
2023/11/22 08:09:11;;;;;;;5.47;3.40;;;1.40;99.90;;;;;;4914381;29;20183;-82
2023/11/22 08:11:36;;;;;;;5.23;3.43;;;1.40;99.90;;;;;;4909679;29;20242;-81
2023/11/22 08:14:03;;;;;;;6.63;3.53;;;1.40;99.90;;;;;;4913990;29;20297;-79
2023/11/22 08:16:32;;;;;;;5.27;3.40;;;1.50;99.90;;;;;;4915095;29;20690;-81
2023/11/22 08:18:58;;;;;;;6.20;3.67;;;1.50;99.90;;;;;;4900502;29;20577;-83
2023/11/22 08:21:24;;;;;;;5.20;3.27;;;1.50;99.90;;;;;;4919412;29;20182;-83
2023/11/22 08:23:50;;;;;;;5.20;2.93;;;1.50;99.90;;;;;;4890962;29;20503;-83
2023/11/22 08:26:16;;;;;;;4.93;3.53;;;1.50;99.90;;;;;;4897571;29;20530;-80
2023/11/22 08:28:42;;;;;;;7.13;3.70;;;1.50;99.90;;;;;;4901755;29;20246;-80
2023/11/22 08:31:09;;;;;;;6.47;4.90;;;1.60;99.90;;;;;;4922450;29;20189;-81
2023/11/22 08:33:35;;;;;;;6.17;4.07;;;1.60;99.90;;;;;;4905438;29;20678;-79
2023/11/22 08:36:04;;;;;;;5.93;3.97;;;1.60;99.90;;;;;;4921416;29;20568;-79
2023/11/22 08:38:31;;;;;;;5.17;3.70;;;1.60;99.90;;;;;;4920721;29;20524;-80
2023/11/22 08:41:07;;;;;;;5.37;3.50;;;1.60;99.90;;;;;;4895898;29;20209;-81
2023/11/22 08:43:33;;;;;;;5.43;3.67;;;1.60;99.90;;;;;;4919471;29;20528;-81
2023/11/22 08:45:59;;;;;;;4.57;3.80;;;1.70;99.90;;;;;;4914335;29;20262;-81
2023/11/22 08:48:26;;;;;;;7.23;3.70;;;1.70;99.90;;;;;;4914514;29;20226;-83
2023/11/22 08:50:53;;;;;;;6.73;4.00;;;1.80;99.90;;;;;;4896494;29;20189;-80
2023/11/22 08:53:20;;;;;;;6.93;4.17;;;1.80;99.90;;;;;;4914161;29;20210;-81
2023/11/22 08:55:46;;;;;;;6.93;4.10;;;1.80;99.90;;;;;;4906105;29;20377;-83
2023/11/22 08:58:13;;;;;;;8.17;4.60;;;1.80;99.90;;;;;;4920853;29;20647;-80
2023/11/22 09:00:39;;;;;;;6.63;4.57;;;1.80;99.90;;;;;;4924157;29;20191;-83
2023/11/22 09:03:04;;;;;;;8.53;5.87;;;1.80;99.90;;;;;;4906578;29;20193;-80
2023/11/22 09:05:30;;;;;;;7.83;4.87;;;1.70;99.90;;;;;;4920221;29;20186;-83
2023/11/22 09:07:58;;;;;;;8.83;6.20;;;1.70;99.90;;;;;;4897807;29;20183;-82
2023/11/22 09:10:23;;;;;;;9.17;5.53;;;1.70;99.90;;;;;;4917224;29;20665;-80
2023/11/22 09:12:49;;;;;;;8.40;6.07;;;1.80;99.90;;;;;;4919070;29;20190;-81
2023/11/22 09:15:17;;;;;;;7.10;5.03;;;1.70;99.90;;;;;;4923853;29;20218;-79
2023/11/22 09:17:44;;;;;;;8.00;4.57;;;1.70;99.90;;;;;;4893039;29;20201;-80
2023/11/22 09:20:13;;;;;;;6.60;4.33;;;1.80;99.90;;;;;;4915194;29;20190;-80
2023/11/22 09:22:47;;;;;;;8.83;5.10;;;1.90;99.90;;;;;;4914388;29;20189;-80
2023/11/22 09:25:30;;;;;;;7.33;4.57;;;2.00;99.90;;;;;;4915438;29;20190;-81
2023/11/22 09:28:00;;;;;;;7.80;4.83;;;2.00;99.90;;;;;;4917244;29;20289;-80
2023/11/22 09:30:42;;;;;;;7.70;4.50;;;1.90;99.90;;;;;;4904910;29;20214;-79
2023/11/22 09:33:14;;;;;;;7.37;5.03;;;2.00;99.90;;;;;;4899792;29;20653;-78
2023/11/22 09:35:41;;;;;;;6.20;4.30;;;2.00;99.90;;;;;;4902225;29;20556;-81
2023/11/22 09:38:11;;;;;;;6.53;4.57;;;2.00;99.90;;;;;;4923163;29;20181;-81
2023/11/22 09:40:46;;;;;;;8.40;4.87;;;2.00;99.90;;;;;;4948072;23;20245;-83
2023/11/22 09:43:16;;;;;;;9.17;5.23;;;2.00;99.90;;;;;;4879286;29;20178;-82
2023/11/22 09:45:45;;;;;;;7.43;4.63;;;2.10;99.90;;;;;;4892318;29;20186;-81
2023/11/22 09:48:22;;;;;;;8.23;4.97;;;2.10;99.90;;;;;;4910666;29;20870;-83
2023/11/22 09:51:03;;;;;;;6.67;4.70;;;2.10;99.90;;;;;;4912949;29;20626;-82
2023/11/22 09:53:36;;;;;;;8.90;5.00;;;2.10;99.90;;;;;;4894392;29;20573;-82
2023/11/22 09:56:04;;;;;;;7.77;4.73;;;2.20;99.90;;;;;;4904661;29;20178;-81
2023/11/22 09:58:34;;;;;;;7.07;4.70;;;2.20;99.90;;;;;;4894944;29;20194;-83
2023/11/22 10:01:03;;;;;;;7.87;5.03;;;2.30;99.90;;;;;;4919000;29;20602;-83
2023/11/22 10:03:30;;;;;;;7.43;5.00;;;2.30;99.90;;;;;;4899306;29;20194;-81
2023/11/22 10:05:59;;;;;;;7.70;4.80;;;2.20;99.90;;;;;;4906884;29;20191;-82
2023/11/22 10:08:31;;;;;;;11.33;5.10;;;2.30;99.90;;;;;;4913245;29;20197;-82
2023/11/22 10:10:57;;;;;;;7.73;5.30;;;2.30;99.90;;;;;;4907441;29;20199;-81
2023/11/22 10:13:23;;;;;;;9.63;5.30;;;2.30;99.90;;;;;;4908582;29;20593;-82
2023/11/22 10:15:49;;;;;;;9.40;4.97;;;2.30;99.90;;;;;;4916019;29;20249;-82
2023/11/22 10:18:17;;;;;;;9.60;4.90;;;2.40;99.90;;;;;;4901382;29;20619;-82
2023/11/22 10:20:46;;;;;;;8.67;4.90;;;2.30;99.90;;;;;;4917507;29;20190;-81
2023/11/22 10:23:14;;;;;;;7.10;4.40;;;2.30;99.90;;;;;;4912042;29;20192;-82
2023/11/22 10:25:45;;;;;;;7.67;4.73;;;2.30;99.90;;;;;;4888165;29;20281;-83
2023/11/22 10:28:12;;;;;;;9.03;5.10;;;2.40;99.90;;;;;;4884524;29;20187;-83
2023/11/22 10:30:40;;;;;;;9.00;5.40;;;2.40;99.90;;;;;;4917965;29;20183;-81
2023/11/22 10:33:06;;;;;;;8.17;4.70;;;2.40;99.90;;;;;;4913748;29;20179;-82
2023/11/22 10:35:32;;;;;;;8.10;4.93;;;2.50;99.90;;;;;;4912854;29;20224;-81
2023/11/22 10:38:04;;;;;;;7.63;4.80;;;2.50;99.90;;;;;;4886899;29;20182;-84
2023/11/22 10:40:30;;;;;;;8.30;5.07;;;2.50;99.90;;;;;;4911032;29;20351;-83
2023/11/22 10:42:56;;;;;;;9.37;4.70;;;2.50;99.90;;;;;;4910035;29;20637;-84
2023/11/22 10:45:24;;;;;;;9.10;4.87;;;2.50;99.90;;;;;;4918398;29;20198;-83
2023/11/22 10:47:54;;;;;;;7.00;4.97;;;2.50;99.90;;;;;;4894167;29;20273;-83
2023/11/22 10:50:21;;;;;;;8.53;5.13;;;2.60;99.90;;;;;;4896514;29;20182;-85
2023/11/22 10:52:55;;;;;;;8.00;4.93;;;2.70;99.90;;;;;;4915309;29;20215;-83
2023/11/22 10:55:22;;;;;;;7.47;4.80;;;2.70;99.90;;;;;;4913311;29;20221;-83
2023/11/22 10:57:51;;;;;;;7.10;4.70;;;2.70;99.90;;;;;;4888473;29;20201;-81
2023/11/22 11:00:22;;;;;;;7.83;4.60;;;2.80;99.90;;;;;;4908152;29;20184;-83
2023/11/22 11:02:53;;;;;;;7.53;4.97;;;2.80;99.90;;;;;;4905139;29;20672;-84
2023/11/22 11:05:28;;;;;;;9.27;4.97;;;2.80;99.90;;;;;;4891224;29;20623;-83
2023/11/22 11:08:16;;;;;;;7.70;4.97;;;2.80;99.90;;;;;;4905862;29;20216;-83
2023/11/22 11:10:45;;;;;;;8.10;4.90;;;2.90;99.90;;;;;;4907030;29;20190;-83
2023/11/22 11:13:12;;;;;;;7.93;4.67;;;2.90;99.90;;;;;;4884327;29;20186;-83
2023/11/22 11:15:39;;;;;;;8.13;4.53;;;2.80;99.90;;;;;;4915096;29;20216;-83
2023/11/22 11:18:13;;;;;;;7.33;4.67;;;2.80;99.90;;;;;;4919293;29;20182;-81
2023/11/22 11:21:02;;;;;;;6.77;4.30;;;2.80;99.90;;;;;;4918184;29;20238;-82
2023/11/22 11:23:28;;;;;;;7.00;4.30;;;2.80;99.90;;;;;;4889934;29;20186;-82
2023/11/22 11:25:56;;;;;;;6.40;4.20;;;2.70;99.90;;;;;;4903731;29;20199;-81
2023/11/22 11:28:26;;;;;;;10.00;4.60;;;2.80;99.90;;;;;;4902200;29;20193;-83
2023/11/22 11:30:53;;;;;;;6.10;4.10;;;2.90;99.90;;;;;;4916597;29;20197;-82
2023/11/22 11:33:34;;;;;;;5.93;4.00;;;2.90;99.90;;;;;;4895510;29;20198;-82
2023/11/22 11:36:05;;;;;;;5.77;4.40;;;2.90;99.90;;;;;;4884837;29;20530;-82
2023/11/22 11:38:34;;;;;;;6.87;3.87;;;2.90;99.90;;;;;;4910229;29;20183;-81
2023/11/22 11:41:11;;;;;;;7.97;4.40;;;3.00;99.90;;;;;;4907361;29;20302;-83
2023/11/22 11:43:45;;;;;;;5.60;4.03;;;2.90;99.90;;;;;;4887361;29;20226;-82
2023/11/22 11:46:12;;;;;;;6.63;4.27;;;3.00;99.90;;;;;;4909198;29;20216;-83
2023/11/22 11:48:41;;;;;;;6.20;3.87;;;3.10;99.90;;;;;;4912443;29;20234;-82
2023/11/22 11:51:07;;;;;;;5.73;4.33;;;3.20;99.90;;;;;;4917993;29;20275;-81
2023/11/22 11:53:33;;;;;;;7.23;4.40;;;3.30;99.90;;;;;;4914899;29;20342;-82
2023/11/22 11:55:59;;;;;;;7.70;4.33;;;3.20;99.90;;;;;;4914951;29;20183;-82
2023/11/22 11:58:25;;;;;;;8.67;4.37;;;3.20;99.90;;;;;;4909039;29;20701;-81
2023/11/22 12:00:52;;;;;;;6.83;3.93;;;3.20;99.90;;;;;;4896623;29;20273;-83
2023/11/22 12:03:21;;;;;;;6.57;4.30;;;3.30;99.90;;;;;;4887680;29;20277;-84
2023/11/22 12:05:49;;;;;;;6.37;4.50;;;3.30;99.90;;;;;;4908131;29;20186;-84
2023/11/22 12:08:15;;;;;;;7.63;4.00;;;3.30;99.90;;;;;;4904783;29;20199;-81
2023/11/22 12:10:42;;;;;;;6.07;4.30;;;3.30;99.90;;;;;;4900876;29;20270;-81
2023/11/22 12:13:08;;;;;;;6.63;3.80;;;3.30;99.90;;;;;;4887865;29;20353;-82
2023/11/22 12:15:34;;;;;;;5.47;3.50;;;3.20;99.90;;;;;;4885252;29;20560;-81
2023/11/22 12:18:01;;;;;;;6.07;3.30;;;3.20;99.90;;;;;;4913506;29;20631;-81
2023/11/22 12:20:31;;;;;;;4.20;3.10;;;3.10;99.90;;;;;;4889591;29;20234;-81
2023/11/22 12:23:00;;;;;;;6.00;3.30;;;3.10;99.90;;;;;;4901651;29;20193;-81
2023/11/22 12:25:30;;;;;;;6.10;3.83;;;3.00;99.90;;;;;;4909160;29;20189;-81
2023/11/22 12:27:56;;;;;;;7.03;3.60;;;3.00;99.90;;;;;;4902082;29;20618;-81
2023/11/22 12:30:31;;;;;;;5.63;3.50;;;3.00;99.90;;;;;;4911302;29;20566;-81
2023/11/22 12:33:00;;;;;;;7.50;3.83;;;3.10;99.90;;;;;;4900645;29;20188;-82
2023/11/22 12:35:26;;;;;;;5.60;3.90;;;3.10;99.90;;;;;;4892216;29;20261;-82
2023/11/22 12:37:54;;;;;;;7.77;4.30;;;3.30;99.90;;;;;;4899064;29;20182;-80
2023/11/22 12:40:21;;;;;;;6.93;3.60;;;3.30;99.90;;;;;;4903033;29;20234;-81
2023/11/22 12:42:50;;;;;;;7.27;4.50;;;3.30;99.90;;;;;;4891749;29;20186;-82
2023/11/22 12:45:24;;;;;;;5.97;4.03;;;3.30;99.90;;;;;;4884171;29;20182;-81
2023/11/22 12:47:55;;;;;;;7.00;4.07;;;3.30;99.90;;;;;;4912849;29;20530;-81
2023/11/22 12:50:41;;;;;;;5.63;4.13;;;3.30;99.90;;;;;;4890826;29;20273;-84
2023/11/22 12:53:15;;;;;;;6.10;4.47;;;3.30;99.90;;;;;;4905701;29;20205;-84
2023/11/22 12:55:45;;;;;;;7.43;4.67;;;3.10;99.90;;;;;;4916124;29;20206;-81
2023/11/22 12:58:11;;;;;;;7.13;4.67;;;3.10;99.90;;;;;;4912267;29;20194;-83